Campo Los Andes, Argentina
Current Conditions -  °F | °C
As of 11:00 AM on Wednesday 28 Jan 2015 (Local Time) from SAME Reporting Station
Few Clouds Few Clouds  
Wind Chill: 79°   Ceiling: Unl
Heat Index: 79°   Visibility: 6mi
Dew Point: 54°   Wind: 10mph
Humidity: 42%   Direction: 140°SE
Pressure: 29.91"   Gusts: NA
Location:  33.67°S, 69.15°W
Report Text: SAME 281400Z 14009KT 9999 FEW040TCU 26/12 Q1013
Loading
Personal Weather Stations






























Interactive Weather Map New forecast layout! Learn more

10-Day Weather Forecast

Advertisements
Track Severe Weather on mobile